Terminal Aerodrome Forecast
Issued by NWS Lake Charles, LA

Home | Current Version | Previous Version | Text Only | Print | Product List | Glossary On
Versions: 1 2 3 4 5 6 7 8 9 10 11 12 13 14 15 16 17
000
FTUS44 KLCH 231101 AAB
TAFAEX
TAF AMD
KAEX 231101Z 2311/2406 14004KT 3SM BR OVC020
      TEMPO 2311/2314 1/2SM FG OVC002
     FM231500 14007KT P6SM VCSH BKN025
     FM231800 15010KT P6SM BKN035=

USA.gov is the U.S. government's official web portal to all federal, state and local government web resources and services.